Time;durP1;ratioP1;P1;durP2;ratioP2;P2;SDS_P1;SDS_P2;PMS_P1;PMS_P2;Temp;Humidity;BMP_temperature;BMP_pressure;BME280_temperature;BME280_humidity;BME280_pressure;Samples;Min_cycle;Max_cycle;Signal;HPM_P1;HPM_P2
2023/05/15 00:02:21;;;;;;;9.45;6.75;;;;;;;10.83;100.00;93038.50;5056729;28;20121;-71
2023/05/15 00:04:48;;;;;;;9.48;7.22;;;;;;;10.78;100.00;93041.72;5066637;28;20048;-72
2023/05/15 00:07:15;;;;;;;9.50;7.15;;;;;;;10.79;100.00;93057.94;5068996;28;20501;-71
2023/05/15 00:09:43;;;;;;;12.48;7.90;;;;;;;10.81;100.00;93076.47;5069345;28;20257;-72
2023/05/15 00:12:10;;;;;;;11.25;8.30;;;;;;;10.76;100.00;93068.63;5068650;28;20504;-72
2023/05/15 00:14:37;;;;;;;11.65;8.30;;;;;;;10.79;100.00;93070.78;5068154;28;20045;-72
2023/05/15 00:17:04;;;;;;;10.75;7.63;;;;;;;10.76;100.00;93060.91;5069073;28;20500;-72
2023/05/15 00:19:30;;;;;;;10.75;8.20;;;;;;;10.77;100.00;93055.56;5069314;28;20047;-72
2023/05/15 00:21:57;;;;;;;10.57;7.75;;;;;;;10.76;100.00;93051.44;5065167;28;20049;-72
2023/05/15 00:24:24;;;;;;;8.63;6.78;;;;;;;10.79;100.00;93057.94;5061867;28;20048;-71
2023/05/15 00:26:52;;;;;;;9.63;6.72;;;;;;;10.86;100.00;93075.81;5068791;28;20147;-72
2023/05/15 00:29:19;;;;;;;9.27;6.65;;;;;;;10.89;100.00;93083.13;5068408;28;20386;-72
2023/05/15 00:31:46;;;;;;;9.00;6.90;;;;;;;10.94;100.00;93090.97;5067879;28;20057;-72
2023/05/15 00:34:12;;;;;;;11.20;6.68;;;;;;;10.93;100.00;93079.91;5069013;28;20049;-72
2023/05/15 00:36:39;;;;;;;9.93;6.50;;;;;;;10.93;100.00;93063.72;5068192;28;20049;-72
2023/05/15 00:39:06;;;;;;;9.38;6.30;;;;;;;11.03;100.00;93079.41;5059412;28;20040;-72
2023/05/15 00:41:33;;;;;;;9.57;6.07;;;;;;;10.99;100.00;93050.00;5068069;28;20049;-72
2023/05/15 00:44:02;;;;;;;11.98;6.68;;;;;;;11.00;100.00;93036.13;5068601;28;20390;-72
2023/05/15 00:46:32;;;;;;;10.68;6.70;;;;;;;11.00;100.00;93049.00;5068612;28;20113;-72
2023/05/15 00:48:59;;;;;;;10.20;6.68;;;;;;;10.99;100.00;93056.91;5068732;28;20529;-71
2023/05/15 00:51:26;;;;;;;8.48;6.55;;;;;;;11.02;100.00;93064.19;5068182;28;20557;-72
2023/05/15 00:53:53;;;;;;;9.57;7.18;;;;;;;11.01;100.00;93073.69;5068769;28;20098;-72
2023/05/15 00:56:21;;;;;;;8.52;6.57;;;;;;;11.06;100.00;93078.19;5068268;28;20137;-72
2023/05/15 00:58:49;;;;;;;8.82;6.65;;;;;;;11.02;100.00;93085.53;5068164;28;20062;-72
2023/05/15 01:01:17;;;;;;;11.43;6.85;;;;;;;11.03;100.00;93074.28;5061006;28;20056;-72
2023/05/15 01:03:44;;;;;;;8.65;6.75;;;;;;;10.98;100.00;93075.91;5050216;28;20437;-72
2023/05/15 01:06:11;;;;;;;9.52;6.80;;;;;;;10.96;100.00;93068.41;5068417;28;20052;-72
2023/05/15 01:08:42;;;;;;;9.45;6.80;;;;;;;10.98;100.00;93065.63;5067744;28;20138;-72
2023/05/15 01:11:09;;;;;;;9.25;7.40;;;;;;;10.92;100.00;93051.88;5067859;28;20040;-72
2023/05/15 01:13:36;;;;;;;13.07;9.07;;;;;;;10.89;100.00;93042.00;5067354;28;20040;-72
2023/05/15 01:16:03;;;;;;;11.45;9.32;;;;;;;10.94;100.00;93030.06;5068074;28;20394;-72
2023/05/15 01:18:32;;;;;;;10.65;8.10;;;;;;;10.44;100.00;92943.72;5067355;28;20040;-72
2023/05/15 01:21:20;;;;;;;12.52;8.77;;;;;;;11.03;100.00;93027.22;5067731;28;20512;-72
2023/05/15 01:24:04;;;;;;;11.15;8.27;;;;;;;11.03;100.00;93020.28;5055647;28;20760;-72
2023/05/15 01:27:04;;;;;;;10.68;8.65;;;;;;;11.05;100.00;93018.28;5067089;28;20048;-72
2023/05/15 01:29:37;;;;;;;11.23;8.98;;;;;;;11.04;100.00;93014.16;5064457;28;20041;-72
2023/05/15 01:32:09;;;;;;;11.73;9.13;;;;;;;11.02;100.00;92999.94;5067283;28;20055;-72
2023/05/15 01:34:42;;;;;;;12.18;9.40;;;;;;;11.12;100.00;93017.41;5067209;28;20044;-72
2023/05/15 01:37:11;;;;;;;12.80;8.23;;;;;;;11.17;100.00;93012.41;5067736;28;20048;-72
2023/05/15 01:39:42;;;;;;;10.43;7.70;;;;;;;11.23;100.00;93019.25;5066419;28;20044;-72
2023/05/15 01:42:10;;;;;;;12.05;8.25;;;;;;;11.27;100.00;93022.16;5067460;28;20048;-72
2023/05/15 01:44:45;;;;;;;10.85;8.32;;;;;;;11.29;100.00;93004.75;5067259;28;20048;-72
2023/05/15 01:47:14;;;;;;;12.45;9.10;;;;;;;11.21;100.00;93008.41;5067681;28;20068;-72
2023/05/15 01:49:44;;;;;;;14.55;8.57;;;;;;;11.23;100.00;92996.91;5067180;28;20071;-72
2023/05/15 01:52:18;;;;;;;13.10;9.38;;;;;;;11.21;100.00;93011.75;5066555;28;20546;-72
2023/05/15 01:54:46;;;;;;;17.55;10.48;;;;;;;11.25;100.00;93019.03;5067206;28;20488;-72
2023/05/15 01:57:14;;;;;;;13.10;9.70;;;;;;;11.28;100.00;93028.88;5067647;28;20052;-72
2023/05/15 01:59:44;;;;;;;14.55;10.15;;;;;;;11.23;100.00;93029.53;5066912;28;20841;-72
2023/05/15 02:02:11;;;;;;;14.77;10.88;;;;;;;11.28;100.00;93047.66;5054183;28;20049;-72
2023/05/15 02:04:40;;;;;;;17.67;11.65;;;;;;;11.30;100.00;93053.34;5066956;28;20040;-72
2023/05/15 02:07:07;;;;;;;20.75;11.50;;;;;;;11.29;100.00;93041.50;5066691;28;20165;-72
2023/05/15 02:09:35;;;;;;;18.73;13.07;;;;;;;11.26;100.00;93036.81;5066555;28;20044;-72
2023/05/15 02:12:02;;;;;;;23.20;16.75;;;;;;;11.22;100.00;93028.72;5067256;28;20062;-72
2023/05/15 02:14:29;;;;;;;19.38;16.67;;;;;;;11.16;100.00;93013.41;5066259;28;20049;-72
2023/05/15 02:16:58;;;;;;;22.65;18.33;;;;;;;11.20;100.00;93015.31;5066613;28;20052;-72
2023/05/15 02:19:25;;;;;;;21.80;17.15;;;;;;;11.17;100.00;93015.78;5066453;28;20455;-72
2023/05/15 02:21:51;;;;;;;21.05;16.58;;;;;;;11.15;100.00;93004.91;5064575;28;20044;-71
2023/05/15 02:24:18;;;;;;;20.58;16.52;;;;;;;11.16;100.00;93008.28;5062304;28;20485;-72
2023/05/15 02:26:53;;;;;;;20.45;15.82;;;;;;;11.20;100.00;93017.13;5067049;28;20413;-72
2023/05/15 02:29:27;;;;;;;20.45;15.77;;;;;;;11.20;100.00;93028.19;5066746;28;20064;-72
2023/05/15 02:32:05;;;;;;;21.23;15.88;;;;;;;11.06;100.00;93001.84;5066951;28;20091;-72
2023/05/15 02:34:39;;;;;;;18.27;15.15;;;;;;;11.22;100.00;93028.72;5066220;28;20059;-72
2023/05/15 02:37:10;;;;;;;16.35;13.48;;;;;;;11.23;100.00;93029.53;5066514;28;20143;-72
2023/05/15 02:39:38;;;;;;;16.20;12.57;;;;;;;11.21;100.00;93029.75;5066386;28;20068;-72
2023/05/15 02:42:08;;;;;;;15.73;12.10;;;;;;;11.17;100.00;93020.13;5066082;28;20056;-72
2023/05/15 02:44:37;;;;;;;14.35;11.07;;;;;;;11.14;100.00;93013.63;5066321;28;20058;-72
2023/05/15 02:47:06;;;;;;;12.50;10.55;;;;;;;11.12;100.00;93004.56;5070695;28;20504;-72
2023/05/15 02:49:33;;;;;;;13.93;9.40;;;;;;;11.04;100.00;92995.34;5070263;28;20048;-72
2023/05/15 02:52:00;;;;;;;13.57;10.02;;;;;;;11.04;100.00;93001.31;5069513;28;20601;-72
2023/05/15 02:54:26;;;;;;;14.93;9.95;;;;;;;10.98;100.00;93003.94;5070386;28;20102;-72
2023/05/15 02:56:53;;;;;;;11.43;9.48;;;;;;;10.98;100.00;92999.59;5069939;28;20048;-72
2023/05/15 02:59:20;;;;;;;12.63;9.45;;;;;;;11.04;100.00;93003.06;5070703;28;20048;-72
2023/05/15 03:01:47;;;;;;;14.20;9.45;;;;;;;11.04;100.00;93006.44;5058783;28;20513;-72
2023/05/15 03:04:15;;;;;;;11.18;9.27;;;;;;;11.04;100.00;93005.63;5056386;28;20052;-72
2023/05/15 03:06:42;;;;;;;13.13;10.13;;;;;;;11.06;100.00;93009.56;5069743;28;20102;-72
2023/05/15 03:09:09;;;;;;;13.02;9.68;;;;;;;11.09;100.00;93016.06;5070444;28;20132;-72
2023/05/15 03:11:36;;;;;;;11.27;9.57;;;;;;;11.09;100.00;93003.22;5069948;28;20041;-72
2023/05/15 03:14:02;;;;;;;14.07;8.98;;;;;;;11.08;100.00;93004.97;5069822;28;20045;-72
2023/05/15 03:16:29;;;;;;;12.98;8.32;;;;;;;11.08;100.00;93001.66;5069957;28;20064;-72
2023/05/15 03:18:56;;;;;;;12.32;8.98;;;;;;;11.11;100.00;92997.84;5068988;28;20041;-72
2023/05/15 03:21:24;;;;;;;10.23;8.10;;;;;;;11.12;100.00;92994.28;5069655;28;20566;-72
2023/05/15 03:23:51;;;;;;;11.48;8.52;;;;;;;11.14;100.00;92979.41;5065476;28;20139;-72
2023/05/15 03:26:18;;;;;;;11.30;7.75;;;;;;;11.14;100.00;92974.28;5070035;28;20041;-72
2023/05/15 03:28:45;;;;;;;12.30;8.43;;;;;;;11.16;100.00;92978.19;5069953;28;20052;-72
2023/05/15 03:31:13;;;;;;;13.77;8.00;;;;;;;11.15;100.00;92978.44;5069835;28;20526;-72
2023/05/15 03:33:40;;;;;;;14.88;9.13;;;;;;;11.23;100.00;92986.63;5069576;28;20493;-73
2023/05/15 03:36:07;;;;;;;14.80;8.73;;;;;;;11.25;100.00;92977.91;5069764;28;20416;-72
2023/05/15 03:38:35;;;;;;;14.30;8.50;;;;;;;11.29;100.00;92968.75;5069553;28;20075;-72
2023/05/15 03:41:02;;;;;;;12.35;8.00;;;;;;;11.31;100.00;92970.09;5069708;28;20051;-72
2023/05/15 03:43:29;;;;;;;12.20;6.97;;;;;;;11.32;100.00;92976.81;5069860;28;20044;-72
2023/05/15 03:45:56;;;;;;;13.18;6.82;;;;;;;11.31;100.00;92985.53;5069189;28;20076;-72
2023/05/15 03:48:22;;;;;;;11.68;5.93;;;;;;;11.30;100.00;92986.50;5069324;28;20044;-73
2023/05/15 03:50:49;;;;;;;11.48;6.07;;;;;;;11.33;100.00;92980.94;5069525;28;20049;-72
2023/05/15 03:53:16;;;;;;;10.75;6.80;;;;;;;11.36;100.00;92982.28;5069625;28;20049;-72
2023/05/15 03:55:44;;;;;;;14.55;7.45;;;;;;;11.38;100.00;92969.22;5068491;28;20463;-72
2023/05/15 03:58:11;;;;;;;24.15;9.68;;;;;;;11.42;100.00;92970.31;5069415;28;20071;-72
2023/05/15 04:00:38;;;;;;;17.33;7.97;;;;;;;11.42;100.00;92971.13;5063659;28;20455;-73
2023/05/15 04:03:05;;;;;;;9.43;6.00;;;;;;;11.45;100.00;92980.97;5069190;28;20238;-72
2023/05/15 04:05:31;;;;;;;10.93;7.13;;;;;;;11.49;100.00;92983.88;5069005;28;20454;-72
2023/05/15 04:07:58;;;;;;;9.85;5.97;;;;;;;11.47;100.00;92991.03;5069689;28;20052;-72
2023/05/15 04:10:25;;;;;;;11.98;6.82;;;;;;;11.52;100.00;92993.72;5068617;28;20048;-72
2023/05/15 04:12:53;;;;;;;15.45;7.30;;;;;;;11.53;100.00;93002.22;5068612;28;20044;-72
2023/05/15 04:15:22;;;;;;;16.95;8.55;;;;;;;11.53;100.00;92986.78;5069310;28;20048;-72
2023/05/15 04:17:50;;;;;;;14.10;7.15;;;;;;;11.51;100.00;92987.00;5068930;28;20056;-73
2023/05/15 04:20:21;;;;;;;14.10;7.03;;;;;;;11.48;100.00;92985.66;5068862;28;20729;-73
2023/05/15 04:22:49;;;;;;;9.02;6.25;;;;;;;11.55;100.00;93005.34;5058640;28;20515;-72
2023/05/15 04:25:16;;;;;;;13.80;6.82;;;;;;;11.57;100.00;92990.50;5069268;28;20094;-73
2023/05/15 04:27:44;;;;;;;10.80;6.40;;;;;;;11.59;100.00;92970.47;5068796;28;20048;-73
2023/05/15 04:30:13;;;;;;;21.67;13.02;;;;;;;11.60;100.00;92949.69;5069369;28;20103;-73
2023/05/15 04:32:40;;;;;;;50.08;34.78;;;;;;;11.60;100.00;92962.53;5068721;28;20088;-73
2023/05/15 04:35:09;;;;;;;36.70;25.33;;;;;;;11.60;100.00;92975.41;5068640;28;20044;-72
2023/05/15 04:37:36;;;;;;;27.58;19.05;;;;;;;11.65;100.00;92969.59;5068987;28;20056;-72
2023/05/15 04:40:06;;;;;;;20.55;15.15;;;;;;;11.72;100.00;92975.41;5068556;28;20044;-72
2023/05/15 04:42:32;;;;;;;14.43;9.90;;;;;;;11.75;100.00;92971.59;5068366;28;20102;-72
2023/05/15 04:44:59;;;;;;;17.08;11.55;;;;;;;11.79;100.00;92984.84;5068974;28;20063;-72
2023/05/15 04:47:28;;;;;;;11.38;8.20;;;;;;;11.72;100.00;92990.84;5068114;28;20076;-73
2023/05/15 04:49:55;;;;;;;105.22;36.42;;;;;;;11.65;100.00;92971.38;5068330;28;20103;-72
2023/05/15 04:52:21;;;;;;;85.13;33.25;;;;;;;11.58;100.00;92971.50;5068186;28;20052;-72
2023/05/15 04:54:49;;;;;;;20.90;13.30;;;;;;;11.28;100.00;92965.38;5068641;28;20125;-73
2023/05/15 04:57:16;;;;;;;14.68;7.78;;;;;;;11.16;100.00;92956.84;5058300;28;20044;-72
2023/05/15 04:59:43;;;;;;;12.23;7.05;;;;;;;11.14;100.00;92966.56;5048757;28;20049;-73
2023/05/15 05:02:10;;;;;;;9.50;6.63;;;;;;;11.01;100.00;92946.97;5061248;28;20044;-73
2023/05/15 05:04:39;;;;;;;10.13;7.78;;;;;;;10.95;100.00;92949.41;5048437;28;20563;-72
2023/05/15 05:07:06;;;;;;;10.70;7.50;;;;;;;10.93;100.00;92960.91;5047995;28;20071;-73
2023/05/15 05:09:32;;;;;;;10.88;8.15;;;;;;;10.67;100.00;92950.75;5047786;28;20520;-72
2023/05/15 05:12:00;;;;;;;10.57;9.18;;;;;;;10.78;100.00;92967.22;5048193;28;20041;-72
2023/05/15 05:14:27;;;;;;;15.20;8.90;;;;;;;10.67;100.00;92960.22;5048403;28;20429;-72
2023/05/15 05:16:53;;;;;;;10.07;7.82;;;;;;;10.76;100.00;92976.13;5047709;28;20065;-72
2023/05/15 05:19:20;;;;;;;10.30;8.55;;;;;;;10.79;100.00;92963.63;5048345;28;20107;-73
2023/05/15 05:21:48;;;;;;;10.88;8.05;;;;;;;10.81;100.00;92961.66;5048397;28;20102;-72
2023/05/15 05:24:15;;;;;;;13.30;9.70;;;;;;;10.86;100.00;92952.50;5048271;28;20041;-72
2023/05/15 05:26:44;;;;;;;11.10;8.45;;;;;;;10.89;100.00;92947.72;5047994;28;20056;-73
2023/05/15 05:29:11;;;;;;;13.30;7.30;;;;;;;10.99;100.00;92951.53;5059333;28;20123;-72
2023/05/15 05:31:38;;;;;;;13.95;7.88;;;;;;;11.06;100.00;92945.31;5067239;28;20131;-73
2023/05/15 05:34:05;;;;;;;10.93;7.80;;;;;;;11.31;100.00;92961.59;5068258;28;20119;-72
2023/05/15 05:36:32;;;;;;;10.90;8.48;;;;;;;11.09;100.00;92937.16;5067773;28;20047;-72
2023/05/15 05:39:03;;;;;;;14.88;8.82;;;;;;;11.31;100.00;92962.38;5067481;28;20515;-73
2023/05/15 05:41:30;;;;;;;13.68;8.57;;;;;;;11.39;100.00;92965.63;5067829;28;20050;-72
2023/05/15 05:43:56;;;;;;;10.48;7.88;;;;;;;11.55;100.00;92966.78;5067531;28;20041;-72
2023/05/15 05:46:23;;;;;;;11.20;7.57;;;;;;;11.73;100.00;92958.97;5067438;28;20447;-72
2023/05/15 05:48:50;;;;;;;13.93;7.57;;;;;;;11.94;100.00;92951.69;5067587;28;20569;-72
2023/05/15 05:51:17;;;;;;;9.68;6.50;;;;;;;11.99;100.00;92946.66;5067224;28;20044;-72
2023/05/15 05:53:43;;;;;;;11.25;6.53;;;;;;;11.65;100.00;92941.28;5067434;28;20086;-72
2023/05/15 05:56:12;;;;;;;9.85;6.00;;;;;;;11.84;100.00;92957.41;5067641;28;20087;-73
2023/05/15 05:58:38;;;;;;;9.02;6.63;;;;;;;12.00;100.00;92971.38;5066913;28;20053;-73
2023/05/15 06:01:05;;;;;;;9.60;7.03;;;;;;;12.01;100.00;92970.41;5067338;28;20048;-72
2023/05/15 06:03:33;;;;;;;9.10;6.70;;;;;;;11.94;100.00;92950.94;5067346;28;20052;-72
2023/05/15 06:05:59;;;;;;;10.95;6.50;;;;;;;11.98;100.00;92949.44;5067510;28;20041;-73
2023/05/15 06:08:26;;;;;;;9.38;6.93;;;;;;;12.10;100.00;92939.19;5067569;28;20102;-72
2023/05/15 06:10:53;;;;;;;10.40;8.55;;;;;;;12.26;100.00;92945.44;5067392;28;20041;-72
2023/05/15 06:13:21;;;;;;;10.73;7.45;;;;;;;12.57;100.00;92953.78;5066879;28;20504;-73
2023/05/15 06:15:48;;;;;;;10.18;6.38;;;;;;;12.70;100.00;92961.25;5060886;28;20045;-72
2023/05/15 06:18:15;;;;;;;11.02;6.65;;;;;;;12.90;100.00;92975.53;5046840;28;20098;-72
2023/05/15 06:20:42;;;;;;;9.18;6.65;;;;;;;13.15;100.00;92977.00;5047348;28;20049;-72
2023/05/15 06:23:09;;;;;;;7.93;6.55;;;;;;;13.26;100.00;92967.66;5047084;28;20053;-72
2023/05/15 06:25:36;;;;;;;8.52;6.55;;;;;;;13.44;100.00;92979.59;5047073;28;20094;-72
2023/05/15 06:28:02;;;;;;;7.38;5.32;;;;;;;13.46;100.00;92987.06;5046956;28;20441;-72
2023/05/15 06:30:30;;;;;;;9.10;5.65;;;;;;;13.83;100.00;92984.06;5047073;28;20505;-73
2023/05/15 06:32:57;;;;;;;8.43;4.97;;;;;;;14.22;100.00;92985.16;5046933;28;20483;-73
2023/05/15 06:35:24;;;;;;;9.82;5.25;;;;;;;14.42;100.00;92997.56;5046704;28;20044;-73
2023/05/15 06:37:51;;;;;;;6.97;5.00;;;;;;;14.77;100.00;93006.03;5047221;28;20107;-73
2023/05/15 06:40:18;;;;;;;9.93;4.82;;;;;;;14.94;100.00;93004.16;5065223;28;20041;-73
2023/05/15 06:42:46;;;;;;;9.57;4.85;;;;;;;15.31;100.00;93005.31;5066634;28;20425;-73
2023/05/15 06:45:12;;;;;;;11.52;7.05;;;;;;;15.65;100.00;93001.75;5066926;28;20481;-73
2023/05/15 06:47:40;;;;;;;7.93;4.45;;;;;;;15.77;100.00;93010.16;5067185;28;20048;-73
2023/05/15 06:50:08;;;;;;;10.90;4.90;;;;;;;16.07;100.00;93010.66;5066991;28;20072;-73
2023/05/15 06:52:35;;;;;;;9.13;3.90;;;;;;;16.29;100.00;93023.50;5066832;28;20052;-73
2023/05/15 06:55:02;;;;;;;8.02;4.20;;;;;;;16.46;100.00;93030.34;5048637;28;20052;-73
2023/05/15 06:57:28;;;;;;;7.13;4.18;;;;;;;16.61;100.00;93027.03;5046631;28;20064;-73
2023/05/15 06:59:55;;;;;;;9.43;3.60;;;;;;;16.75;100.00;93018.81;5046899;28;20114;-74
2023/05/15 07:02:22;;;;;;;7.90;3.03;;;;;;;16.90;100.00;93018.09;5063889;28;20045;-74
2023/05/15 07:04:50;;;;;;;10.15;3.97;;;;;;;16.89;100.00;93019.91;5066854;28;20044;-74
2023/05/15 07:07:17;;;;;;;11.75;3.92;;;;;;;16.85;100.00;93010.28;5066912;28;20485;-73
2023/05/15 07:09:47;;;;;;;8.27;3.65;;;;;;;16.89;100.00;93017.31;5066732;28;20045;-73
2023/05/15 07:12:13;;;;;;;7.05;3.50;;;;;;;16.74;100.00;92989.50;5066556;28;20611;-74
2023/05/15 07:14:40;;;;;;;10.20;4.13;;;;;;;17.03;100.00;93029.88;5067011;28;20088;-74
2023/05/15 07:17:07;;;;;;;9.18;3.78;;;;;;;17.07;100.00;93026.50;5066498;28;20044;-73
2023/05/15 07:19:34;;;;;;;12.13;3.67;;;;;;;17.11;100.00;93013.78;5066825;28;20041;-73
2023/05/15 07:22:02;;;;;;;7.78;4.00;;;;;;;17.18;100.00;93013.56;5059024;28;20056;-73
2023/05/15 07:24:28;;;;;;;5.47;2.95;;;;;;;17.21;100.00;93019.00;5047319;28;20409;-73
2023/05/15 07:26:56;;;;;;;8.85;3.33;;;;;;;17.21;100.00;93011.22;5046636;28;20401;-73
2023/05/15 07:29:23;;;;;;;8.88;3.45;;;;;;;17.21;100.00;93013.81;5046809;28;20676;-73
2023/05/15 07:31:49;;;;;;;11.13;3.92;;;;;;;17.26;100.00;93012.28;5049209;28;20056;-73
2023/05/15 07:34:16;;;;;;;7.97;3.65;;;;;;;17.31;100.00;93010.47;5050505;28;20444;-74
2023/05/15 07:36:43;;;;;;;6.43;3.20;;;;;;;17.35;100.00;93003.72;5050966;28;20080;-73
2023/05/15 07:39:12;;;;;;;5.30;3.28;;;;;;;17.38;100.00;93009.44;5050836;28;20107;-74
2023/05/15 07:41:38;;;;;;;6.78;3.10;;;;;;;17.40;100.00;93015.94;5050070;28;20452;-73
2023/05/15 07:44:05;;;;;;;6.93;3.15;;;;;;;17.41;100.00;93027.09;5050502;28;20045;-73
2023/05/15 07:46:32;;;;;;;6.78;3.65;;;;;;;17.41;100.00;93017.50;5069977;28;20391;-73
2023/05/15 07:48:59;;;;;;;7.40;3.33;;;;;;;17.42;100.00;93032.06;5069948;28;20427;-73
2023/05/15 07:51:26;;;;;;;6.85;4.03;;;;;;;17.40;100.00;93028.91;5069796;28;20063;-73
2023/05/15 07:53:53;;;;;;;9.48;3.53;;;;;;;17.42;100.00;93026.84;5070209;28;20495;-73
2023/05/15 07:56:21;;;;;;;10.75;4.43;;;;;;;17.44;100.00;93029.19;5069905;28;20041;-74
2023/05/15 07:58:48;;;;;;;6.82;3.55;;;;;;;17.40;100.00;93039.31;5069544;28;20147;-73
2023/05/15 08:01:15;;;;;;;7.93;3.50;;;;;;;17.30;100.00;93028.88;5069223;28;20086;-73
2023/05/15 08:03:42;;;;;;;6.93;2.90;;;;;;;17.15;100.00;93014.84;5070240;28;20040;-74
2023/05/15 08:06:08;;;;;;;8.93;3.60;;;;;;;17.02;100.00;93017.88;5070060;28;20053;-74
2023/05/15 08:08:35;;;;;;;9.18;5.97;;;;;;;16.76;100.00;93008.16;5066913;28;20739;-73
2023/05/15 08:11:02;;;;;;;12.18;6.03;;;;;;;16.41;100.00;92991.41;5049289;28;20045;-73
2023/05/15 08:13:30;;;;;;;8.63;6.03;;;;;;;16.07;100.00;92991.72;5049941;28;20041;-73
2023/05/15 08:15:57;;;;;;;9.80;6.43;;;;;;;16.04;100.00;92993.00;5049624;28;20045;-73
2023/05/15 08:18:23;;;;;;;8.13;6.05;;;;;;;16.07;100.00;92996.91;5049811;28;20056;-73
2023/05/15 08:20:51;;;;;;;8.82;6.60;;;;;;;15.80;100.00;92993.34;5049268;28;20048;-73
2023/05/15 08:23:17;;;;;;;9.43;6.35;;;;;;;15.35;100.00;92995.25;5062798;28;20142;-73
2023/05/15 08:25:44;;;;;;;11.07;6.63;;;;;;;15.09;100.00;92984.69;5069155;28;20051;-74
2023/05/15 08:28:11;;;;;;;10.55;6.72;;;;;;;14.93;100.00;92991.47;5069327;28;20053;-73
2023/05/15 08:30:39;;;;;;;10.80;7.65;;;;;;;15.07;100.00;92991.88;5069619;28;20427;-74
2023/05/15 08:33:06;;;;;;;10.82;7.50;;;;;;;15.14;100.00;92994.28;5069442;28;20145;-74
2023/05/15 08:35:32;;;;;;;10.95;6.65;;;;;;;14.88;100.00;92994.78;5069563;28;20048;-73
2023/05/15 08:37:59;;;;;;;9.93;6.70;;;;;;;14.56;100.00;92996.19;5069154;28;20440;-73
2023/05/15 08:40:27;;;;;;;9.48;7.20;;;;;;;14.66;100.00;92989.56;5068608;28;20056;-73
2023/05/15 08:42:56;;;;;;;13.52;7.97;;;;;;;14.00;100.00;92989.25;5049017;28;20635;-73
2023/05/15 08:45:24;;;;;;;11.73;7.85;;;;;;;14.02;100.00;92982.03;5050798;28;20049;-73
2023/05/15 08:47:53;;;;;;;15.10;8.65;;;;;;;13.72;100.00;92978.00;5068945;28;20067;-73
2023/05/15 08:50:21;;;;;;;12.35;9.05;;;;;;;13.97;100.00;92983.75;5068808;28;20517;-73
2023/05/15 08:52:50;;;;;;;15.70;9.30;;;;;;;13.82;100.00;92986.88;5068633;28;20574;-73
2023/05/15 08:55:17;;;;;;;15.80;9.90;;;;;;;13.83;100.00;92980.72;5068622;28;20048;-73
2023/05/15 08:57:45;;;;;;;14.93;9.43;;;;;;;13.87;100.00;92990.34;5068784;28;20105;-73
2023/05/15 09:00:13;;;;;;;28.80;11.88;;;;;;;13.94;100.00;93003.09;5052510;28;20184;-73
2023/05/15 09:02:41;;;;;;;19.95;10.45;;;;;;;13.93;100.00;92996.34;5068615;28;20041;-73
2023/05/15 09:05:10;;;;;;;21.50;11.88;;;;;;;13.95;100.00;92988.38;5068611;28;20048;-73
2023/05/15 09:07:39;;;;;;;18.58;11.80;;;;;;;13.97;100.00;92987.13;5057757;28;20044;-73
2023/05/15 09:10:08;;;;;;;18.88;12.77;;;;;;;13.90;100.00;92994.25;5068123;28;20108;-73
2023/05/15 09:12:38;;;;;;;18.05;12.50;;;;;;;13.45;100.00;92977.78;5068211;28;20504;-73
2023/05/15 09:15:09;;;;;;;15.75;11.57;;;;;;;13.44;100.00;92968.47;5068386;28;20055;-73
2023/05/15 09:17:36;;;;;;;19.60;12.93;;;;;;;13.46;100.00;92982.72;5068074;28;20071;-73
2023/05/15 09:20:05;;;;;;;17.15;12.95;;;;;;;13.56;100.00;92971.78;5067634;28;20040;-73
2023/05/15 09:22:36;;;;;;;19.33;13.68;;;;;;;13.67;100.00;92972.75;5067810;28;20141;-73
2023/05/15 09:25:03;;;;;;;24.23;13.63;;;;;;;13.75;100.00;92953.50;5067867;28;20528;-73
2023/05/15 09:27:30;;;;;;;19.17;13.98;;;;;;;13.90;100.00;92938.22;5068187;28;20055;-73
2023/05/15 09:30:08;;;;;;;21.70;15.38;;;;;;;13.90;100.00;92942.63;5067931;28;20044;-73
2023/05/15 09:32:37;;;;;;;18.02;12.38;;;;;;;13.87;100.00;92943.88;5068162;28;20052;-73
2023/05/15 09:35:05;;;;;;;19.00;13.98;;;;;;;13.63;100.00;92922.59;5067590;28;20049;-73
2023/05/15 09:37:33;;;;;;;19.73;13.50;;;;;;;13.70;100.00;92938.72;5067586;28;20044;-73
2023/05/15 09:40:11;;;;;;;19.75;14.00;;;;;;;13.75;100.00;92943.94;5042109;28;20461;-73
2023/05/15 09:42:40;;;;;;;23.90;16.05;;;;;;;13.55;100.00;92938.47;5067564;28;20040;-73
2023/05/15 09:45:17;;;;;;;18.02;13.10;;;;;;;13.26;100.00;92941.09;5067780;28;20102;-72
2023/05/15 09:47:45;;;;;;;19.80;13.55;;;;;;;13.29;100.00;92953.53;5067281;28;20052;-73
2023/05/15 09:50:12;;;;;;;30.25;20.27;;;;;;;13.37;100.00;92932.50;5067638;28;20550;-73
2023/05/15 09:52:39;;;;;;;19.67;13.38;;;;;;;13.38;100.00;92951.34;5061985;28;20048;-73
2023/05/15 09:55:09;;;;;;;22.02;13.85;;;;;;;13.28;100.00;92949.38;5066895;28;20045;-73
2023/05/15 09:57:37;;;;;;;20.02;13.52;;;;;;;13.29;100.00;92940.63;5067181;28;20132;-73
2023/05/15 10:00:10;;;;;;;22.15;13.68;;;;;;;13.47;100.00;92942.25;5067413;28;20110;-73
2023/05/15 10:02:40;;;;;;;18.92;13.38;;;;;;;13.47;100.00;92944.81;5067099;28;20076;-73
2023/05/15 10:05:08;;;;;;;19.35;13.60;;;;;;;13.73;100.00;92950.38;5067155;28;20055;-73
2023/05/15 10:07:36;;;;;;;20.13;13.40;;;;;;;13.68;100.00;92939.97;5041186;28;20098;-73
2023/05/15 10:10:04;;;;;;;16.83;13.15;;;;;;;13.98;100.00;92973.19;5067606;28;20048;-73
2023/05/15 10:12:32;;;;;;;16.80;12.73;;;;;;;14.10;100.00;92974.91;5067413;28;20430;-73
2023/05/15 10:15:01;;;;;;;21.08;13.63;;;;;;;14.02;100.00;92968.34;5067161;28;20048;-73
2023/05/15 10:17:28;;;;;;;20.23;13.57;;;;;;;14.12;100.00;92978.81;5067156;28;20068;-73
2023/05/15 10:19:59;;;;;;;18.58;12.82;;;;;;;13.95;100.00;92990.97;5066615;28;20084;-73
2023/05/15 10:22:29;;;;;;;19.60;13.55;;;;;;;13.95;100.00;92988.38;5067017;28;20072;-73
2023/05/15 10:25:02;;;;;;;21.98;14.18;;;;;;;13.85;100.00;92987.19;5066967;28;20048;-73
2023/05/15 10:27:30;;;;;;;18.77;13.98;;;;;;;14.05;100.00;92987.75;5067338;28;20053;-73
2023/05/15 10:30:00;;;;;;;20.85;13.43;;;;;;;13.87;100.00;92979.22;5067108;28;20044;-73
2023/05/15 10:32:27;;;;;;;22.60;13.75;;;;;;;13.99;100.00;92972.16;5067125;28;20083;-73
2023/05/15 10:34:54;;;;;;;19.38;13.63;;;;;;;14.14;100.00;92983.75;5066865;28;20049;-73
2023/05/15 10:37:21;;;;;;;19.08;13.32;;;;;;;14.22;100.00;92983.34;5067354;28;20062;-74
2023/05/15 10:39:49;;;;;;;22.60;13.90;;;;;;;14.25;100.00;92982.88;5067247;28;20048;-73
2023/05/15 10:42:16;;;;;;;23.35;13.32;;;;;;;14.34;100.00;92990.22;5066980;28;20048;-73
2023/05/15 10:44:43;;;;;;;20.13;12.70;;;;;;;14.37;100.00;92976.81;5061376;28;20049;-73
2023/05/15 10:47:11;;;;;;;21.77;13.85;;;;;;;14.46;100.00;92974.59;5059318;28;20060;-73
2023/05/15 10:49:38;;;;;;;19.17;12.77;;;;;;;14.60;100.00;92970.66;5066287;28;20048;-73
2023/05/15 10:52:06;;;;;;;19.55;12.93;;;;;;;14.69;100.00;92953.69;5067127;28;20045;-73
2023/05/15 10:54:35;;;;;;;17.98;12.25;;;;;;;14.81;100.00;92956.19;5066204;28;20068;-73
2023/05/15 10:57:01;;;;;;;20.70;12.90;;;;;;;14.94;100.00;92964.56;5067270;28;20059;-73
2023/05/15 10:59:32;;;;;;;22.40;13.15;;;;;;;14.95;100.00;92955.81;5066420;28;20045;-73
2023/05/15 11:02:22;;;;;;;20.10;12.90;;;;;;;14.76;100.00;92958.69;5066631;28;20438;-73
2023/05/15 11:04:53;;;;;;;20.20;12.98;;;;;;;14.90;100.00;92956.53;5066787;28;20045;-73
2023/05/15 11:07:20;;;;;;;19.70;10.55;;;;;;;14.67;100.00;92967.88;5069792;28;20041;-73
2023/05/15 11:09:47;;;;;;;18.35;12.30;;;;;;;14.75;100.00;92977.84;5070854;28;20059;-73
2023/05/15 11:12:13;;;;;;;19.10;12.40;;;;;;;14.61;100.00;92964.47;5070521;28;20587;-73
2023/05/15 11:14:42;;;;;;;25.48;13.35;;;;;;;14.75;100.00;92970.06;5070980;28;20048;-73
2023/05/15 11:17:10;;;;;;;21.92;13.02;;;;;;;15.03;100.00;92988.22;5070345;28;20041;-73
2023/05/15 11:19:57;;;;;;;20.58;12.57;;;;;;;15.20;100.00;92967.44;5070124;28;20161;-73
2023/05/15 11:22:32;;;;;;;21.83;12.48;;;;;;;15.48;100.00;92953.47;5070193;28;20502;-73